»·PEaware :: QXE2003 KYKM-KSEA

QXE2003 :: KYKM-KSEA

FLIGHT INFORMATION

Flight Status: Arrived
Operator:
Horizon Air
More flights by this operator :: More flights under this callsign
Pilot: Adlai G. (28854)
Aircraft: DEHAVILLAND DASH 8 400
(DH8D)
More flights by this aircraft type
Origin: KYKM Yakima Air Term/Mcallister
United States
Destination: KSEA Seattle-Tacoma Intl
United States
More flights between these airports :: More routes between these airports
Route: NACHES4 YKM V4 CHINS CHINS4
File this flight plan on PilotEdge
Remarks:
Altitude:
(Current/Filed)
14,000ft
Speed:
(Current/Filed)
344kts
Departed: 11-Feb-21 03:15 PM
Arrived: 11-Feb-21 03:42 PM
Distance/Time
Traveled:
89nm/0:26
Distance/Time
To Go:
Arrived

Flight Plot

Page will automatically refresh every two minutes.

Flight plan parsing failed; only flown route is shown


Map Options




Map Legend


Flown Route
Filed Route
Departure Airport
Arrival Airport
Navaid (VOR, NDB)
Fix

Horizontal Profiles

Position Reports

Time Latitude Longitude Heading Altitude Ground
Speed
11-Feb-21 14:20 46.569945 -120.541231 358 1102ft 0kts
11-Feb-21 14:21 46.569945 -120.541231 358 1102ft 0kts
11-Feb-21 14:22 46.569945 -120.541231 358 1102ft 0kts
11-Feb-21 14:23 46.569945 -120.541231 358 1102ft 0kts
11-Feb-21 14:25 46.569945 -120.541231 358 1102ft 0kts
11-Feb-21 14:26 46.569945 -120.541231 358 1102ft 0kts
11-Feb-21 14:27 46.569945 -120.541231 358 1102ft 0kts
11-Feb-21 14:28 46.569945 -120.541231 358 1102ft 0kts
11-Feb-21 14:29 46.569945 -120.541231 358 1102ft 0kts
11-Feb-21 14:30 46.569945 -120.541231 358 1102ft 0kts
11-Feb-21 14:31 46.569945 -120.541231 358 1102ft 0kts
11-Feb-21 14:32 46.569945 -120.541231 358 1102ft 0kts
11-Feb-21 14:33 46.569945 -120.541231 358 1102ft 0kts
11-Feb-21 14:34 46.569945 -120.541231 358 1102ft 0kts
11-Feb-21 14:35 46.569945 -120.541231 358 1102ft 0kts
11-Feb-21 14:36 46.569945 -120.541231 358 1102ft 0kts
11-Feb-21 14:37 46.569945 -120.541231 358 1102ft 0kts
11-Feb-21 14:38 46.569945 -120.541231 358 1102ft 0kts
11-Feb-21 14:39 46.569945 -120.541231 358 1102ft 0kts
11-Feb-21 14:39 46.569945 -120.541231 358 1102ft 0kts
11-Feb-21 14:41 46.569945 -120.541231 358 1102ft 0kts
11-Feb-21 14:41 46.569945 -120.541231 358 1102ft 0kts
11-Feb-21 14:43 46.569945 -120.541231 358 1102ft 0kts
11-Feb-21 14:44 46.569945 -120.541231 358 1102ft 0kts
11-Feb-21 14:44 46.569945 -120.541231 358 1102ft 0kts
11-Feb-21 14:46 46.569945 -120.541231 358 1102ft 0kts
11-Feb-21 14:46 46.569945 -120.541231 358 1102ft 0kts
11-Feb-21 14:47 46.569945 -120.541231 358 1102ft 0kts
11-Feb-21 14:48 46.569945 -120.541231 358 1102ft 0kts
11-Feb-21 14:49 46.569945 -120.541231 358 1102ft 0kts
11-Feb-21 14:50 46.569945 -120.541231 358 1102ft 0kts
11-Feb-21 14:51 46.569945 -120.541231 358 1102ft 0kts
11-Feb-21 14:52 46.569945 -120.541231 358 1102ft 0kts
11-Feb-21 14:53 46.569945 -120.541231 358 1102ft 0kts
11-Feb-21 14:54 46.569945 -120.541231 358 1102ft 0kts
11-Feb-21 14:55 46.569945 -120.541231 358 1102ft 0kts
11-Feb-21 14:56 46.569945 -120.541231 358 1102ft 0kts
11-Feb-21 14:57 46.569945 -120.541231 358 1102ft 0kts
11-Feb-21 14:58 46.569945 -120.541231 358 1102ft 0kts
11-Feb-21 14:59 46.569945 -120.541231 358 1102ft 0kts
11-Feb-21 15:00 46.569945 -120.541231 358 1102ft 0kts
11-Feb-21 15:01 46.569945 -120.541231 358 1102ft 0kts
11-Feb-21 15:02 46.569945 -120.541231 358 1102ft 0kts
11-Feb-21 15:03 46.569945 -120.541231 358 1102ft 0kts
11-Feb-21 15:04 46.569849 -120.541227 358 1102ft 2kts
11-Feb-21 15:05 46.569043 -120.541307 16 1102ft 2kts
11-Feb-21 15:06 46.568866 -120.541783 109 1102ft 0kts
11-Feb-21 15:07 46.568866 -120.541783 109 1102ft 0kts
11-Feb-21 15:08 46.568867 -120.541788 109 1102ft 0kts
11-Feb-21 15:09 46.568867 -120.541788 109 1102ft 0kts
11-Feb-21 15:10 46.568867 -120.541788 109 1102ft 0kts
11-Feb-21 15:11 46.568685 -120.541062 110 1102ft 7kts
11-Feb-21 15:12 46.567657 -120.536951 108 1102ft 17kts
11-Feb-21 15:13 46.566269 -120.531516 111 1102ft 9kts
11-Feb-21 15:14 46.567760 -120.540415 290 1103ft 116kts
11-Feb-21 15:15 46.595214 -120.580063 335 3302ft 168kts
11-Feb-21 15:16 46.644947 -120.615348 335 5400ft 216kts
11-Feb-21 15:17 46.701072 -120.656174 335 7918ft 231kts
11-Feb-21 15:18 46.733636 -120.737479 285 10369ft 248kts
11-Feb-21 15:19 46.764518 -120.830164 300 12337ft 260kts
11-Feb-21 15:20 46.800664 -120.924950 301 13788ft 279kts
11-Feb-21 15:21 46.846497 -121.027796 304 13926ft 322kts
11-Feb-21 15:22 46.897710 -121.138853 309 13928ft 330kts
11-Feb-21 15:23 46.951154 -121.249935 308 13892ft 337kts
11-Feb-21 15:24 47.003922 -121.362604 306 13879ft 339kts
11-Feb-21 15:25 47.055729 -121.477160 306 13862ft 323kts
11-Feb-21 15:26 47.103475 -121.580175 308 13855ft 297kts
11-Feb-21 15:27 47.150289 -121.680558 308 13823ft 295kts
11-Feb-21 15:28 47.145362 -121.799242 255 13082ft 309kts
11-Feb-21 15:29 47.120513 -121.918962 255 11834ft 305kts
11-Feb-21 15:30 47.098931 -122.034519 256 10034ft 279kts
11-Feb-21 15:31 47.080207 -122.143814 256 7915ft 268kts
11-Feb-21 15:32 47.067404 -122.238036 285 7133ft 220kts
11-Feb-21 15:33 47.110294 -122.296287 326 5663ft 219kts
11-Feb-21 15:34 47.163012 -122.322766 9 4949ft 189kts
11-Feb-21 15:35 47.215155 -122.313031 5 4321ft 188kts
11-Feb-21 15:36 47.265907 -122.309949 1 3414ft 161kts
11-Feb-21 15:37 47.305258 -122.309409 1 2728ft 130kts
11-Feb-21 15:38 47.341106 -122.308637 0 2074ft 128kts
11-Feb-21 15:39 47.377131 -122.307451 356 1433ft 132kts
11-Feb-21 15:40 47.414848 -122.308105 355 757ft 134kts
11-Feb-21 15:41 47.443249 -122.307873 3 440ft 10kts
11-Feb-21 15:42 47.444162 -122.306312 359 440ft 8kts
11-Feb-21 15:43 47.445289 -122.305661 180 440ft 8kts
11-Feb-21 15:44 47.445408 -122.304575 51 440ft 0kts
11-Feb-21 15:45 47.445408 -122.304575 51 440ft 0kts
11-Feb-21 15:46 47.445408 -122.304575 51 440ft 0kts
11-Feb-21 15:47 47.445408 -122.304575 51 440ft 0kts

Navigation Log

Ident Type
Flight plan parsing failed, navigation log unavailable